sensor_id;sensor_type;location;lat;lon;timestamp;temperature;humidity
19000;DHT22;9633;50.980;13.850;2022-12-01T00:01:18;1.20;99.90
19000;DHT22;9633;50.980;13.850;2022-12-01T00:02:51;1.10;99.90
19000;DHT22;9633;50.980;13.850;2022-12-01T00:04:25;1.10;99.90
19000;DHT22;9633;50.980;13.850;2022-12-01T00:05:58;1.10;99.90
19000;DHT22;9633;50.980;13.850;2022-12-01T00:07:32;1.20;99.90
19000;DHT22;9633;50.980;13.850;2022-12-01T00:09:05;1.20;99.90
19000;DHT22;9633;50.980;13.850;2022-12-01T00:11:02;1.20;99.90
19000;DHT22;9633;50.980;13.850;2022-12-01T00:12:35;1.20;99.90
19000;DHT22;9633;50.980;13.850;2022-12-01T00:14:14;1.30;99.90
19000;DHT22;9633;50.980;13.850;2022-12-01T00:15:49;1.20;99.90
19000;DHT22;9633;50.980;13.850;2022-12-01T00:17:22;1.30;99.90
19000;DHT22;9633;50.980;13.850;2022-12-01T00:18:54;1.20;99.90
19000;DHT22;9633;50.980;13.850;2022-12-01T00:20:27;1.20;99.90
19000;DHT22;9633;50.980;13.850;2022-12-01T00:22:00;1.10;99.90
19000;DHT22;9633;50.980;13.850;2022-12-01T00:23:33;1.20;99.90
19000;DHT22;9633;50.980;13.850;2022-12-01T00:25:06;1.20;99.90
19000;DHT22;9633;50.980;13.850;2022-12-01T00:26:39;1.20;99.90
19000;DHT22;9633;50.980;13.850;2022-12-01T00:28:12;1.20;99.90
19000;DHT22;9633;50.980;13.850;2022-12-01T00:29:46;1.10;99.90
19000;DHT22;9633;50.980;13.850;2022-12-01T00:31:21;1.10;99.90
19000;DHT22;9633;50.980;13.850;2022-12-01T00:32:54;1.10;99.90
19000;DHT22;9633;50.980;13.850;2022-12-01T00:34:27;1.10;99.90
19000;DHT22;9633;50.980;13.850;2022-12-01T00:35:59;1.10;99.90
19000;DHT22;9633;50.980;13.850;2022-12-01T00:37:34;1.10;99.90
19000;DHT22;9633;50.980;13.850;2022-12-01T00:39:08;1.10;99.90
19000;DHT22;9633;50.980;13.850;2022-12-01T00:40:41;1.10;99.90
19000;DHT22;9633;50.980;13.850;2022-12-01T00:42:14;1.20;99.90
19000;DHT22;9633;50.980;13.850;2022-12-01T00:43:48;1.20;99.90
19000;DHT22;9633;50.980;13.850;2022-12-01T00:45:20;1.20;99.90
19000;DHT22;9633;50.980;13.850;2022-12-01T00:46:54;1.10;99.90
19000;DHT22;9633;50.980;13.850;2022-12-01T00:48:27;1.10;99.90
19000;DHT22;9633;50.980;13.850;2022-12-01T00:50:01;1.10;99.90
19000;DHT22;9633;50.980;13.850;2022-12-01T00:51:34;1.10;99.90
19000;DHT22;9633;50.980;13.850;2022-12-01T00:53:07;1.10;99.90
19000;DHT22;9633;50.980;13.850;2022-12-01T00:54:41;1.10;99.90
19000;DHT22;9633;50.980;13.850;2022-12-01T00:56:14;1.10;99.90
19000;DHT22;9633;50.980;13.850;2022-12-01T00:57:47;1.10;99.90
19000;DHT22;9633;50.980;13.850;2022-12-01T00:59:20;1.10;99.90
19000;DHT22;9633;50.980;13.850;2022-12-01T01:00:58;1.10;99.90
19000;DHT22;9633;50.980;13.850;2022-12-01T01:02:32;1.10;99.90
19000;DHT22;9633;50.980;13.850;2022-12-01T01:04:06;1.10;99.90
19000;DHT22;9633;50.980;13.850;2022-12-01T01:05:39;1.10;99.90
19000;DHT22;9633;50.980;13.850;2022-12-01T01:07:13;1.10;99.90
19000;DHT22;9633;50.980;13.850;2022-12-01T01:08:46;1.00;99.90
19000;DHT22;9633;50.980;13.850;2022-12-01T01:10:18;1.00;99.90
19000;DHT22;9633;50.980;13.850;2022-12-01T01:11:51;1.00;99.90
19000;DHT22;9633;50.980;13.850;2022-12-01T01:13:24;0.90;99.90
19000;DHT22;9633;50.980;13.850;2022-12-01T01:14:57;1.00;99.90
19000;DHT22;9633;50.980;13.850;2022-12-01T01:16:31;1.00;99.90
19000;DHT22;9633;50.980;13.850;2022-12-01T01:18:06;1.00;99.90
19000;DHT22;9633;50.980;13.850;2022-12-01T01:19:40;1.00;99.90
19000;DHT22;9633;50.980;13.850;2022-12-01T01:21:15;1.00;99.90
19000;DHT22;9633;50.980;13.850;2022-12-01T01:22:48;1.00;99.90
19000;DHT22;9633;50.980;13.850;2022-12-01T01:24:21;1.10;99.90
19000;DHT22;9633;50.980;13.850;2022-12-01T01:26:00;1.00;99.90
19000;DHT22;9633;50.980;13.850;2022-12-01T01:27:33;1.10;99.90
19000;DHT22;9633;50.980;13.850;2022-12-01T01:29:06;1.10;99.90
19000;DHT22;9633;50.980;13.850;2022-12-01T01:30:39;1.10;99.90
19000;DHT22;9633;50.980;13.850;2022-12-01T01:32:11;1.00;99.90
19000;DHT22;9633;50.980;13.850;2022-12-01T01:33:46;1.00;99.90
19000;DHT22;9633;50.980;13.850;2022-12-01T01:35:19;1.00;99.90
19000;DHT22;9633;50.980;13.850;2022-12-01T01:36:52;1.00;99.90
19000;DHT22;9633;50.980;13.850;2022-12-01T01:38:25;1.00;99.90
19000;DHT22;9633;50.980;13.850;2022-12-01T01:39:59;1.10;99.90
19000;DHT22;9633;50.980;13.850;2022-12-01T01:41:32;1.10;99.90
19000;DHT22;9633;50.980;13.850;2022-12-01T01:43:13;1.10;99.90
19000;DHT22;9633;50.980;13.850;2022-12-01T01:44:48;1.10;99.90
19000;DHT22;9633;50.980;13.850;2022-12-01T01:46:23;1.10;99.90
19000;DHT22;9633;50.980;13.850;2022-12-01T01:47:58;1.10;99.90
19000;DHT22;9633;50.980;13.850;2022-12-01T01:49:33;1.10;99.90
19000;DHT22;9633;50.980;13.850;2022-12-01T01:51:07;1.10;99.90
19000;DHT22;9633;50.980;13.850;2022-12-01T01:52:43;1.10;99.90
19000;DHT22;9633;50.980;13.850;2022-12-01T01:54:19;1.10;99.90
19000;DHT22;9633;50.980;13.850;2022-12-01T01:55:54;1.10;99.90
19000;DHT22;9633;50.980;13.850;2022-12-01T01:57:28;1.10;99.90
19000;DHT22;9633;50.980;13.850;2022-12-01T01:59:03;1.20;99.90
19000;DHT22;9633;50.980;13.850;2022-12-01T02:00:37;1.20;99.90
19000;DHT22;9633;50.980;13.850;2022-12-01T02:02:11;1.20;99.90
19000;DHT22;9633;50.980;13.850;2022-12-01T02:03:45;1.20;99.90
19000;DHT22;9633;50.980;13.850;2022-12-01T02:05:24;1.20;99.90
19000;DHT22;9633;50.980;13.850;2022-12-01T02:06:57;1.20;99.90
19000;DHT22;9633;50.980;13.850;2022-12-01T02:08:32;1.10;99.90
19000;DHT22;9633;50.980;13.850;2022-12-01T02:10:09;1.00;99.90
19000;DHT22;9633;50.980;13.850;2022-12-01T02:11:54;0.90;99.90
19000;DHT22;9633;50.980;13.850;2022-12-01T02:13:35;1.00;99.90
19000;DHT22;9633;50.980;13.850;2022-12-01T02:15:20;0.90;99.90
19000;DHT22;9633;50.980;13.850;2022-12-01T02:17:00;1.00;99.90
19000;DHT22;9633;50.980;13.850;2022-12-01T02:18:38;1.00;99.90
19000;DHT22;9633;50.980;13.850;2022-12-01T02:20:44;0.90;99.90
19000;DHT22;9633;50.980;13.850;2022-12-01T02:22:29;0.90;99.90
19000;DHT22;9633;50.980;13.850;2022-12-01T02:24:35;0.90;99.90
19000;DHT22;9633;50.980;13.850;2022-12-01T02:26:38;0.90;99.90
19000;DHT22;9633;50.980;13.850;2022-12-01T02:28:28;1.00;99.90
19000;DHT22;9633;50.980;13.850;2022-12-01T02:30:09;1.00;99.90
19000;DHT22;9633;50.980;13.850;2022-12-01T02:31:48;1.00;99.90
19000;DHT22;9633;50.980;13.850;2022-12-01T02:33:28;1.00;99.90
19000;DHT22;9633;50.980;13.850;2022-12-01T02:35:09;1.00;99.90
19000;DHT22;9633;50.980;13.850;2022-12-01T02:36:49;1.00;99.90
19000;DHT22;9633;50.980;13.850;2022-12-01T02:38:28;1.00;99.90
19000;DHT22;9633;50.980;13.850;2022-12-01T02:40:08;1.00;99.90
19000;DHT22;9633;50.980;13.850;2022-12-01T02:41:48;1.00;99.90
19000;DHT22;9633;50.980;13.850;2022-12-01T02:43:26;1.00;99.90
19000;DHT22;9633;50.980;13.850;2022-12-01T02:45:02;1.10;99.90
19000;DHT22;9633;50.980;13.850;2022-12-01T02:46:39;1.00;99.90
19000;DHT22;9633;50.980;13.850;2022-12-01T02:48:18;1.00;99.90
19000;DHT22;9633;50.980;13.850;2022-12-01T02:49:53;1.10;99.90
19000;DHT22;9633;50.980;13.850;2022-12-01T02:51:30;1.00;99.90
19000;DHT22;9633;50.980;13.850;2022-12-01T02:53:05;1.00;99.90
19000;DHT22;9633;50.980;13.850;2022-12-01T02:54:39;1.10;99.90
19000;DHT22;9633;50.980;13.850;2022-12-01T02:56:13;1.00;99.90
19000;DHT22;9633;50.980;13.850;2022-12-01T02:57:47;1.00;99.90
19000;DHT22;9633;50.980;13.850;2022-12-01T02:59:19;1.00;99.90
19000;DHT22;9633;50.980;13.850;2022-12-01T03:01:06;1.10;99.90
19000;DHT22;9633;50.980;13.850;2022-12-01T03:03:03;1.10;99.90
19000;DHT22;9633;50.980;13.850;2022-12-01T03:04:51;1.10;99.90
19000;DHT22;9633;50.980;13.850;2022-12-01T03:06:35;1.10;99.90
19000;DHT22;9633;50.980;13.850;2022-12-01T03:08:17;1.10;99.90
19000;DHT22;9633;50.980;13.850;2022-12-01T03:09:58;1.10;99.90
19000;DHT22;9633;50.980;13.850;2022-12-01T03:11:36;1.10;99.90
19000;DHT22;9633;50.980;13.850;2022-12-01T03:13:18;1.00;99.90
19000;DHT22;9633;50.980;13.850;2022-12-01T03:15:02;1.10;99.90
19000;DHT22;9633;50.980;13.850;2022-12-01T03:16:46;1.10;99.90
19000;DHT22;9633;50.980;13.850;2022-12-01T03:18:28;1.10;99.90
19000;DHT22;9633;50.980;13.850;2022-12-01T03:20:10;1.10;99.90
19000;DHT22;9633;50.980;13.850;2022-12-01T03:21:50;1.10;99.90
19000;DHT22;9633;50.980;13.850;2022-12-01T03:23:27;1.10;99.90
19000;DHT22;9633;50.980;13.850;2022-12-01T03:25:03;1.10;99.90
19000;DHT22;9633;50.980;13.850;2022-12-01T03:26:36;1.10;99.90
19000;DHT22;9633;50.980;13.850;2022-12-01T03:28:12;1.00;99.90
19000;DHT22;9633;50.980;13.850;2022-12-01T03:29:54;1.00;99.90
19000;DHT22;9633;50.980;13.850;2022-12-01T03:31:31;1.00;99.90
19000;DHT22;9633;50.980;13.850;2022-12-01T03:33:11;1.00;99.90
19000;DHT22;9633;50.980;13.850;2022-12-01T03:34:53;1.10;99.90
19000;DHT22;9633;50.980;13.850;2022-12-01T03:36:32;1.00;99.90
19000;DHT22;9633;50.980;13.850;2022-12-01T03:38:11;1.10;99.90
19000;DHT22;9633;50.980;13.850;2022-12-01T03:39:47;1.10;99.90
19000;DHT22;9633;50.980;13.850;2022-12-01T03:41:27;1.10;99.90
19000;DHT22;9633;50.980;13.850;2022-12-01T03:43:03;1.10;99.90
19000;DHT22;9633;50.980;13.850;2022-12-01T03:44:44;1.10;99.90
19000;DHT22;9633;50.980;13.850;2022-12-01T03:46:22;1.10;99.90
19000;DHT22;9633;50.980;13.850;2022-12-01T03:47:55;1.10;99.90
19000;DHT22;9633;50.980;13.850;2022-12-01T03:49:29;1.10;99.90
19000;DHT22;9633;50.980;13.850;2022-12-01T03:51:04;1.10;99.90
19000;DHT22;9633;50.980;13.850;2022-12-01T03:52:48;1.10;99.90
19000;DHT22;9633;50.980;13.850;2022-12-01T03:54:30;1.10;99.90
19000;DHT22;9633;50.980;13.850;2022-12-01T03:56:06;1.20;99.90
19000;DHT22;9633;50.980;13.850;2022-12-01T03:57:43;1.10;99.90
19000;DHT22;9633;50.980;13.850;2022-12-01T03:59:19;1.20;99.90
19000;DHT22;9633;50.980;13.850;2022-12-01T04:00:53;1.20;99.90
19000;DHT22;9633;50.980;13.850;2022-12-01T04:02:28;1.20;99.90
19000;DHT22;9633;50.980;13.850;2022-12-01T04:04:06;1.20;99.90
19000;DHT22;9633;50.980;13.850;2022-12-01T04:05:40;1.10;99.90
19000;DHT22;9633;50.980;13.850;2022-12-01T04:07:13;1.10;99.90
19000;DHT22;9633;50.980;13.850;2022-12-01T04:08:47;1.10;99.90
19000;DHT22;9633;50.980;13.850;2022-12-01T04:10:20;1.10;99.90
19000;DHT22;9633;50.980;13.850;2022-12-01T04:11:54;1.20;99.90
19000;DHT22;9633;50.980;13.850;2022-12-01T04:13:44;1.10;99.90
19000;DHT22;9633;50.980;13.850;2022-12-01T04:15:16;1.10;99.90
19000;DHT22;9633;50.980;13.850;2022-12-01T04:16:49;1.10;99.90
19000;DHT22;9633;50.980;13.850;2022-12-01T04:18:22;1.10;99.90
19000;DHT22;9633;50.980;13.850;2022-12-01T04:19:55;1.00;99.90
19000;DHT22;9633;50.980;13.850;2022-12-01T04:21:29;1.10;99.90
19000;DHT22;9633;50.980;13.850;2022-12-01T04:23:01;1.10;99.90
19000;DHT22;9633;50.980;13.850;2022-12-01T04:24:35;1.10;99.90
19000;DHT22;9633;50.980;13.850;2022-12-01T04:26:07;1.10;99.90
19000;DHT22;9633;50.980;13.850;2022-12-01T04:27:46;1.10;99.90
19000;DHT22;9633;50.980;13.850;2022-12-01T04:29:19;1.10;99.90
19000;DHT22;9633;50.980;13.850;2022-12-01T04:30:52;1.10;99.90
19000;DHT22;9633;50.980;13.850;2022-12-01T04:32:26;1.10;99.90
19000;DHT22;9633;50.980;13.850;2022-12-01T04:33:59;1.10;99.90
19000;DHT22;9633;50.980;13.850;2022-12-01T04:35:31;1.20;99.90
19000;DHT22;9633;50.980;13.850;2022-12-01T04:37:06;1.10;99.90
19000;DHT22;9633;50.980;13.850;2022-12-01T04:38:40;1.10;99.90
19000;DHT22;9633;50.980;13.850;2022-12-01T04:40:14;1.20;99.90
19000;DHT22;9633;50.980;13.850;2022-12-01T04:41:47;1.10;99.90
19000;DHT22;9633;50.980;13.850;2022-12-01T04:43:20;1.20;99.90
19000;DHT22;9633;50.980;13.850;2022-12-01T04:44:52;1.30;99.90
19000;DHT22;9633;50.980;13.850;2022-12-01T04:46:25;1.20;99.90
19000;DHT22;9633;50.980;13.850;2022-12-01T04:47:59;1.20;99.90
19000;DHT22;9633;50.980;13.850;2022-12-01T04:49:32;1.20;99.90
19000;DHT22;9633;50.980;13.850;2022-12-01T04:51:08;1.20;99.90
19000;DHT22;9633;50.980;13.850;2022-12-01T04:52:40;1.20;99.90
19000;DHT22;9633;50.980;13.850;2022-12-01T04:54:14;1.20;99.90
19000;DHT22;9633;50.980;13.850;2022-12-01T04:55:48;1.20;99.90
19000;DHT22;9633;50.980;13.850;2022-12-01T04:57:21;1.20;99.90
19000;DHT22;9633;50.980;13.850;2022-12-01T04:58:54;1.20;99.90
19000;DHT22;9633;50.980;13.850;2022-12-01T05:00:26;1.20;99.90
19000;DHT22;9633;50.980;13.850;2022-12-01T05:02:00;1.20;99.90
19000;DHT22;9633;50.980;13.850;2022-12-01T05:03:35;1.30;99.90
19000;DHT22;9633;50.980;13.850;2022-12-01T05:05:08;1.20;99.90
19000;DHT22;9633;50.980;13.850;2022-12-01T05:06:42;1.10;99.90
19000;DHT22;9633;50.980;13.850;2022-12-01T05:08:15;1.10;99.90
19000;DHT22;9633;50.980;13.850;2022-12-01T05:09:47;1.10;99.90
19000;DHT22;9633;50.980;13.850;2022-12-01T05:11:23;1.20;99.90
19000;DHT22;9633;50.980;13.850;2022-12-01T05:12:57;1.10;99.90
19000;DHT22;9633;50.980;13.850;2022-12-01T05:14:31;1.20;99.90
19000;DHT22;9633;50.980;13.850;2022-12-01T05:16:05;1.10;99.90
19000;DHT22;9633;50.980;13.850;2022-12-01T05:17:37;1.10;99.90
19000;DHT22;9633;50.980;13.850;2022-12-01T05:19:10;1.20;99.90
19000;DHT22;9633;50.980;13.850;2022-12-01T05:21:01;1.10;99.90
19000;DHT22;9633;50.980;13.850;2022-12-01T05:22:34;1.10;99.90
19000;DHT22;9633;50.980;13.850;2022-12-01T05:24:27;1.10;99.90
19000;DHT22;9633;50.980;13.850;2022-12-01T05:26:02;1.20;99.90
19000;DHT22;9633;50.980;13.850;2022-12-01T05:27:37;1.20;99.90
19000;DHT22;9633;50.980;13.850;2022-12-01T05:29:11;1.20;99.90
19000;DHT22;9633;50.980;13.850;2022-12-01T05:30:44;1.20;99.90
19000;DHT22;9633;50.980;13.850;2022-12-01T05:32:18;1.20;99.90
19000;DHT22;9633;50.980;13.850;2022-12-01T05:33:51;1.10;99.90
19000;DHT22;9633;50.980;13.850;2022-12-01T05:35:23;1.10;99.90
19000;DHT22;9633;50.980;13.850;2022-12-01T05:36:56;1.00;99.90
19000;DHT22;9633;50.980;13.850;2022-12-01T05:38:29;1.10;99.90
19000;DHT22;9633;50.980;13.850;2022-12-01T05:40:02;1.10;99.90
19000;DHT22;9633;50.980;13.850;2022-12-01T05:41:34;1.00;99.90
19000;DHT22;9633;50.980;13.850;2022-12-01T05:43:09;1.00;99.90
19000;DHT22;9633;50.980;13.850;2022-12-01T05:44:42;1.10;99.90
19000;DHT22;9633;50.980;13.850;2022-12-01T05:46:15;1.20;99.90
19000;DHT22;9633;50.980;13.850;2022-12-01T05:47:48;1.20;99.90
19000;DHT22;9633;50.980;13.850;2022-12-01T05:49:22;1.30;99.90
19000;DHT22;9633;50.980;13.850;2022-12-01T05:50:55;1.30;99.90
19000;DHT22;9633;50.980;13.850;2022-12-01T05:52:28;1.20;99.90
19000;DHT22;9633;50.980;13.850;2022-12-01T05:54:01;1.20;99.90
19000;DHT22;9633;50.980;13.850;2022-12-01T05:55:34;1.30;99.90
19000;DHT22;9633;50.980;13.850;2022-12-01T05:57:07;1.30;99.90
19000;DHT22;9633;50.980;13.850;2022-12-01T05:58:42;1.30;99.90
19000;DHT22;9633;50.980;13.850;2022-12-01T06:00:15;1.30;99.90
19000;DHT22;9633;50.980;13.850;2022-12-01T06:01:49;1.30;99.90
19000;DHT22;9633;50.980;13.850;2022-12-01T06:03:22;1.40;99.90
19000;DHT22;9633;50.980;13.850;2022-12-01T06:04:55;1.30;99.90
19000;DHT22;9633;50.980;13.850;2022-12-01T06:06:28;1.30;99.90
19000;DHT22;9633;50.980;13.850;2022-12-01T06:08:01;1.30;99.90
19000;DHT22;9633;50.980;13.850;2022-12-01T06:09:34;1.30;99.90
19000;DHT22;9633;50.980;13.850;2022-12-01T06:11:08;1.20;99.90
19000;DHT22;9633;50.980;13.850;2022-12-01T06:12:41;1.20;99.90
19000;DHT22;9633;50.980;13.850;2022-12-01T06:14:14;1.30;99.90
19000;DHT22;9633;50.980;13.850;2022-12-01T06:15:55;1.30;99.90
19000;DHT22;9633;50.980;13.850;2022-12-01T06:17:29;1.20;99.90
19000;DHT22;9633;50.980;13.850;2022-12-01T06:19:09;1.20;99.90
19000;DHT22;9633;50.980;13.850;2022-12-01T06:20:42;1.20;99.90
19000;DHT22;9633;50.980;13.850;2022-12-01T06:22:15;1.20;99.90
19000;DHT22;9633;50.980;13.850;2022-12-01T06:23:47;1.10;99.90
19000;DHT22;9633;50.980;13.850;2022-12-01T06:25:20;1.10;99.90
19000;DHT22;9633;50.980;13.850;2022-12-01T06:26:53;1.20;99.90
19000;DHT22;9633;50.980;13.850;2022-12-01T06:28:27;1.20;99.90
19000;DHT22;9633;50.980;13.850;2022-12-01T06:30:01;1.20;99.90
19000;DHT22;9633;50.980;13.850;2022-12-01T06:31:35;1.20;99.90
19000;DHT22;9633;50.980;13.850;2022-12-01T06:33:08;1.20;99.90
19000;DHT22;9633;50.980;13.850;2022-12-01T06:34:41;1.20;99.90
19000;DHT22;9633;50.980;13.850;2022-12-01T06:36:15;1.10;99.90
19000;DHT22;9633;50.980;13.850;2022-12-01T06:37:48;1.10;99.90
19000;DHT22;9633;50.980;13.850;2022-12-01T06:39:21;1.00;99.90
19000;DHT22;9633;50.980;13.850;2022-12-01T06:40:54;1.20;99.90
19000;DHT22;9633;50.980;13.850;2022-12-01T06:42:28;1.10;99.90
19000;DHT22;9633;50.980;13.850;2022-12-01T06:44:02;1.10;99.90
19000;DHT22;9633;50.980;13.850;2022-12-01T06:45:36;1.10;99.90
19000;DHT22;9633;50.980;13.850;2022-12-01T06:47:10;1.10;99.90
19000;DHT22;9633;50.980;13.850;2022-12-01T06:48:43;1.10;99.90
19000;DHT22;9633;50.980;13.850;2022-12-01T06:50:16;1.10;99.90
19000;DHT22;9633;50.980;13.850;2022-12-01T06:51:49;1.10;99.90
19000;DHT22;9633;50.980;13.850;2022-12-01T06:53:22;1.10;99.90
19000;DHT22;9633;50.980;13.850;2022-12-01T06:54:55;1.10;99.90
19000;DHT22;9633;50.980;13.850;2022-12-01T06:56:28;1.10;99.90
19000;DHT22;9633;50.980;13.850;2022-12-01T06:58:02;1.20;99.90
19000;DHT22;9633;50.980;13.850;2022-12-01T06:59:35;1.20;99.90
19000;DHT22;9633;50.980;13.850;2022-12-01T07:01:11;1.10;99.90
19000;DHT22;9633;50.980;13.850;2022-12-01T07:02:44;1.20;99.90
19000;DHT22;9633;50.980;13.850;2022-12-01T07:04:17;1.20;99.90
19000;DHT22;9633;50.980;13.850;2022-12-01T07:05:54;1.20;99.90
19000;DHT22;9633;50.980;13.850;2022-12-01T07:07:29;1.20;99.90
19000;DHT22;9633;50.980;13.850;2022-12-01T07:09:02;1.20;99.90
19000;DHT22;9633;50.980;13.850;2022-12-01T07:10:35;1.20;99.90
19000;DHT22;9633;50.980;13.850;2022-12-01T07:12:08;1.20;99.90
19000;DHT22;9633;50.980;13.850;2022-12-01T07:13:43;1.20;99.90
19000;DHT22;9633;50.980;13.850;2022-12-01T07:15:17;1.20;99.90
19000;DHT22;9633;50.980;13.850;2022-12-01T07:16:51;1.10;99.90
19000;DHT22;9633;50.980;13.850;2022-12-01T07:18:25;1.30;99.90
19000;DHT22;9633;50.980;13.850;2022-12-01T07:19:58;1.30;99.90
19000;DHT22;9633;50.980;13.850;2022-12-01T07:21:31;1.20;99.90
19000;DHT22;9633;50.980;13.850;2022-12-01T07:23:04;1.20;99.90
19000;DHT22;9633;50.980;13.850;2022-12-01T07:24:37;1.20;99.90
19000;DHT22;9633;50.980;13.850;2022-12-01T07:26:12;1.30;99.90
19000;DHT22;9633;50.980;13.850;2022-12-01T07:27:46;1.30;99.90
19000;DHT22;9633;50.980;13.850;2022-12-01T07:29:19;1.20;99.90
19000;DHT22;9633;50.980;13.850;2022-12-01T07:30:52;1.20;99.90
19000;DHT22;9633;50.980;13.850;2022-12-01T07:32:26;1.30;99.90
19000;DHT22;9633;50.980;13.850;2022-12-01T07:33:59;1.30;99.90
19000;DHT22;9633;50.980;13.850;2022-12-01T07:35:32;1.30;99.90
19000;DHT22;9633;50.980;13.850;2022-12-01T07:37:05;1.20;99.90
19000;DHT22;9633;50.980;13.850;2022-12-01T07:38:38;1.30;99.90
19000;DHT22;9633;50.980;13.850;2022-12-01T07:40:11;1.30;99.90
19000;DHT22;9633;50.980;13.850;2022-12-01T07:41:45;1.30;99.90
19000;DHT22;9633;50.980;13.850;2022-12-01T07:43:18;1.40;99.90
19000;DHT22;9633;50.980;13.850;2022-12-01T07:44:51;1.40;99.90
19000;DHT22;9633;50.980;13.850;2022-12-01T07:46:26;1.50;99.90
19000;DHT22;9633;50.980;13.850;2022-12-01T07:48:01;1.50;99.90
19000;DHT22;9633;50.980;13.850;2022-12-01T07:49:34;1.50;99.90
19000;DHT22;9633;50.980;13.850;2022-12-01T07:51:09;1.50;99.90
19000;DHT22;9633;50.980;13.850;2022-12-01T07:52:43;1.50;99.90
19000;DHT22;9633;50.980;13.850;2022-12-01T07:54:16;1.50;99.90
19000;DHT22;9633;50.980;13.850;2022-12-01T07:55:51;1.50;99.90
19000;DHT22;9633;50.980;13.850;2022-12-01T07:57:24;1.40;99.90
19000;DHT22;9633;50.980;13.850;2022-12-01T07:58:57;1.50;99.90
19000;DHT22;9633;50.980;13.850;2022-12-01T08:00:31;1.40;99.90
19000;DHT22;9633;50.980;13.850;2022-12-01T08:02:04;1.50;99.90
19000;DHT22;9633;50.980;13.850;2022-12-01T08:03:39;1.50;99.90
19000;DHT22;9633;50.980;13.850;2022-12-01T08:05:13;1.40;99.90
19000;DHT22;9633;50.980;13.850;2022-12-01T08:06:46;1.50;99.90
19000;DHT22;9633;50.980;13.850;2022-12-01T08:08:19;1.50;99.90
19000;DHT22;9633;50.980;13.850;2022-12-01T08:09:52;1.40;99.90
19000;DHT22;9633;50.980;13.850;2022-12-01T08:11:26;1.40;99.90
19000;DHT22;9633;50.980;13.850;2022-12-01T08:13:00;1.50;99.90
19000;DHT22;9633;50.980;13.850;2022-12-01T08:14:33;1.50;99.90
19000;DHT22;9633;50.980;13.850;2022-12-01T08:16:08;1.50;99.90
19000;DHT22;9633;50.980;13.850;2022-12-01T08:17:41;1.50;99.90
19000;DHT22;9633;50.980;13.850;2022-12-01T08:19:16;1.50;99.90
19000;DHT22;9633;50.980;13.850;2022-12-01T08:20:49;1.40;99.90
19000;DHT22;9633;50.980;13.850;2022-12-01T08:22:22;1.50;99.90
19000;DHT22;9633;50.980;13.850;2022-12-01T08:23:56;1.50;99.90
19000;DHT22;9633;50.980;13.850;2022-12-01T08:25:29;1.60;99.90
19000;DHT22;9633;50.980;13.850;2022-12-01T08:27:04;1.60;99.90
19000;DHT22;9633;50.980;13.850;2022-12-01T08:28:37;1.60;99.90
19000;DHT22;9633;50.980;13.850;2022-12-01T08:30:12;1.50;99.90
19000;DHT22;9633;50.980;13.850;2022-12-01T08:31:45;1.40;99.90
19000;DHT22;9633;50.980;13.850;2022-12-01T08:33:18;1.50;99.90
19000;DHT22;9633;50.980;13.850;2022-12-01T08:34:52;1.50;99.90
19000;DHT22;9633;50.980;13.850;2022-12-01T08:36:25;1.50;99.90
19000;DHT22;9633;50.980;13.850;2022-12-01T08:37:59;1.60;99.90
19000;DHT22;9633;50.980;13.850;2022-12-01T08:39:32;1.50;99.90
19000;DHT22;9633;50.980;13.850;2022-12-01T08:41:07;1.50;99.90
19000;DHT22;9633;50.980;13.850;2022-12-01T08:42:40;1.50;99.90
19000;DHT22;9633;50.980;13.850;2022-12-01T08:44:13;1.50;99.90
19000;DHT22;9633;50.980;13.850;2022-12-01T08:45:46;1.60;99.90
19000;DHT22;9633;50.980;13.850;2022-12-01T08:47:19;1.70;99.90
19000;DHT22;9633;50.980;13.850;2022-12-01T08:48:53;1.60;99.90
19000;DHT22;9633;50.980;13.850;2022-12-01T08:50:30;1.60;99.90
19000;DHT22;9633;50.980;13.850;2022-12-01T08:52:03;1.60;99.90
19000;DHT22;9633;50.980;13.850;2022-12-01T08:53:38;1.60;99.90
19000;DHT22;9633;50.980;13.850;2022-12-01T08:55:16;1.50;99.90
19000;DHT22;9633;50.980;13.850;2022-12-01T08:56:49;1.50;99.90
19000;DHT22;9633;50.980;13.850;2022-12-01T08:58:23;1.50;99.90
19000;DHT22;9633;50.980;13.850;2022-12-01T08:59:56;1.60;99.90
19000;DHT22;9633;50.980;13.850;2022-12-01T09:01:29;1.60;99.90
19000;DHT22;9633;50.980;13.850;2022-12-01T09:03:03;1.70;99.90
19000;DHT22;9633;50.980;13.850;2022-12-01T09:04:37;1.60;99.90
19000;DHT22;9633;50.980;13.850;2022-12-01T09:06:13;1.50;99.90
19000;DHT22;9633;50.980;13.850;2022-12-01T09:07:46;1.50;99.90
19000;DHT22;9633;50.980;13.850;2022-12-01T09:09:40;1.40;99.90
19000;DHT22;9633;50.980;13.850;2022-12-01T09:11:15;1.40;99.90
19000;DHT22;9633;50.980;13.850;2022-12-01T09:12:49;1.40;99.90
19000;DHT22;9633;50.980;13.850;2022-12-01T09:14:22;1.50;99.90
19000;DHT22;9633;50.980;13.850;2022-12-01T09:15:57;1.50;99.90
19000;DHT22;9633;50.980;13.850;2022-12-01T09:17:30;1.50;99.90
19000;DHT22;9633;50.980;13.850;2022-12-01T09:19:04;1.50;99.90
19000;DHT22;9633;50.980;13.850;2022-12-01T09:20:37;1.60;99.90
19000;DHT22;9633;50.980;13.850;2022-12-01T09:22:11;1.70;99.90
19000;DHT22;9633;50.980;13.850;2022-12-01T09:23:44;1.70;99.90
19000;DHT22;9633;50.980;13.850;2022-12-01T09:25:17;1.80;99.90
19000;DHT22;9633;50.980;13.850;2022-12-01T09:26:54;1.90;99.90
19000;DHT22;9633;50.980;13.850;2022-12-01T09:28:27;1.80;99.90
19000;DHT22;9633;50.980;13.850;2022-12-01T09:30:00;1.80;99.90
19000;DHT22;9633;50.980;13.850;2022-12-01T09:31:34;1.90;99.90
19000;DHT22;9633;50.980;13.850;2022-12-01T09:33:07;1.80;99.90
19000;DHT22;9633;50.980;13.850;2022-12-01T09:34:40;2.00;99.90
19000;DHT22;9633;50.980;13.850;2022-12-01T09:36:13;2.00;99.90
19000;DHT22;9633;50.980;13.850;2022-12-01T09:37:48;2.00;99.90
19000;DHT22;9633;50.980;13.850;2022-12-01T09:39:21;2.00;99.90
19000;DHT22;9633;50.980;13.850;2022-12-01T09:40:55;2.00;99.90
19000;DHT22;9633;50.980;13.850;2022-12-01T09:42:29;1.90;99.90
19000;DHT22;9633;50.980;13.850;2022-12-01T09:44:14;1.90;99.90
19000;DHT22;9633;50.980;13.850;2022-12-01T09:45:59;2.00;99.90
19000;DHT22;9633;50.980;13.850;2022-12-01T09:47:35;2.00;99.90
19000;DHT22;9633;50.980;13.850;2022-12-01T09:49:14;2.10;99.90
19000;DHT22;9633;50.980;13.850;2022-12-01T09:50:48;1.80;99.90
19000;DHT22;9633;50.980;13.850;2022-12-01T09:52:23;1.80;99.90
19000;DHT22;9633;50.980;13.850;2022-12-01T09:53:59;1.90;99.90
19000;DHT22;9633;50.980;13.850;2022-12-01T09:55:34;1.90;99.90
19000;DHT22;9633;50.980;13.850;2022-12-01T09:57:15;1.90;99.90
19000;DHT22;9633;50.980;13.850;2022-12-01T09:58:51;2.00;99.90
19000;DHT22;9633;50.980;13.850;2022-12-01T10:00:29;2.10;99.90
19000;DHT22;9633;50.980;13.850;2022-12-01T10:02:28;2.10;99.90
19000;DHT22;9633;50.980;13.850;2022-12-01T10:04:08;2.00;99.90
19000;DHT22;9633;50.980;13.850;2022-12-01T10:05:44;2.10;99.90
19000;DHT22;9633;50.980;13.850;2022-12-01T10:07:43;1.90;99.90
19000;DHT22;9633;50.980;13.850;2022-12-01T10:09:22;2.00;99.90
19000;DHT22;9633;50.980;13.850;2022-12-01T10:11:03;2.00;99.90
19000;DHT22;9633;50.980;13.850;2022-12-01T10:12:40;2.00;99.90